Time;durP1;ratioP1;P1;durP2;ratioP2;P2;SDS_P1;SDS_P2;PMS_P1;PMS_P2;Temp;Humidity;BMP_temperature;BMP_pressure;BME280_temperature;BME280_humidity;BME280_pressure;Samples;Min_cycle;Max_cycle;Signal;HPM_P1;HPM_P2
2021/08/26 00:06:24;;;;;;;7.45;4.90;;;23.30;50.20;;;;;;5069804;28;20126;-65
2021/08/26 00:08:53;;;;;;;8.13;4.75;;;23.30;50.30;;;;;;5071220;28;20017;-63
2021/08/26 00:11:21;;;;;;;6.53;4.40;;;23.30;50.50;;;;;;5031088;28;20048;-64
2021/08/26 00:13:50;;;;;;;7.47;4.57;;;23.30;50.40;;;;;;5030938;28;20028;-62
2021/08/26 00:16:20;;;;;;;9.25;5.10;;;23.30;50.50;;;;;;5033819;28;20061;-62
2021/08/26 00:18:47;;;;;;;8.18;4.97;;;23.30;50.50;;;;;;5049846;28;20028;-63
2021/08/26 00:21:13;;;;;;;6.95;4.70;;;23.30;50.40;;;;;;5034573;28;20410;-62
2021/08/26 00:23:39;;;;;;;8.20;5.25;;;23.30;50.30;;;;;;5034108;28;20260;-63
2021/08/26 00:26:05;;;;;;;7.20;4.57;;;23.30;50.20;;;;;;5034878;28;20079;-63
2021/08/26 00:28:30;;;;;;;7.93;4.45;;;23.30;50.30;;;;;;5034315;28;20420;-64
2021/08/26 00:30:56;;;;;;;5.40;4.18;;;23.30;50.40;;;;;;5034802;28;20060;-63
2021/08/26 00:33:22;;;;;;;6.95;4.72;;;23.20;50.40;;;;;;5034296;28;20033;-65
2021/08/26 00:35:48;;;;;;;7.00;4.00;;;23.30;50.20;;;;;;5056217;28;20060;-62
2021/08/26 00:38:14;;;;;;;8.55;5.00;;;23.30;50.20;;;;;;5074596;28;20020;-63
2021/08/26 00:40:40;;;;;;;8.43;4.43;;;23.30;50.20;;;;;;5073457;28;20031;-63
2021/08/26 00:43:06;;;;;;;8.73;5.10;;;23.20;50.20;;;;;;5074364;28;20454;-63
2021/08/26 00:45:33;;;;;;;8.27;4.78;;;23.20;50.20;;;;;;5073525;28;20102;-63
2021/08/26 00:48:02;;;;;;;6.72;4.45;;;23.20;50.20;;;;;;5073156;28;20029;-63
2021/08/26 00:50:28;;;;;;;7.07;4.47;;;23.20;50.10;;;;;;5073492;28;20033;-64
2021/08/26 00:52:54;;;;;;;10.07;5.50;;;23.20;50.10;;;;;;5073824;28;20028;-65
2021/08/26 00:55:21;;;;;;;7.68;4.88;;;23.20;50.10;;;;;;5073917;28;20021;-64
2021/08/26 00:57:46;;;;;;;6.90;4.50;;;23.20;50.00;;;;;;5073402;28;20466;-62
2021/08/26 01:00:13;;;;;;;7.38;4.65;;;23.20;50.10;;;;;;5072769;28;20041;-64
2021/08/26 01:02:44;;;;;;;6.40;4.43;;;23.20;50.00;;;;;;5073931;28;20095;-64
2021/08/26 01:05:33;;;;;;;7.30;4.35;;;23.20;49.90;;;;;;5074061;28;20039;-64
2021/08/26 01:08:19;;;;;;;7.20;4.68;;;23.20;49.80;;;;;;5073671;28;20072;-64
2021/08/26 01:10:50;;;;;;;9.38;4.15;;;23.20;49.70;;;;;;5057354;28;20025;-64
2021/08/26 01:13:16;;;;;;;6.72;4.38;;;23.20;49.50;;;;;;5054074;28;20037;-64
2021/08/26 01:16:12;;;;;;;9.98;4.97;;;23.10;49.50;;;;;;5052708;28;20037;-63
2021/08/26 01:18:48;;;;;;;7.65;4.53;;;23.10;49.40;;;;;;5053044;28;20032;-63
2021/08/26 01:21:20;;;;;;;9.73;4.60;;;23.10;49.20;;;;;;5052507;28;20057;-63
2021/08/26 01:23:58;;;;;;;8.30;4.75;;;23.10;49.10;;;;;;5052765;28;20037;-63
2021/08/26 01:26:29;;;;;;;5.55;3.63;;;23.10;49.20;;;;;;5052990;28;20087;-64
2021/08/26 01:28:58;;;;;;;7.15;4.38;;;23.10;49.20;;;;;;5053470;28;20033;-63
2021/08/26 01:31:24;;;;;;;7.18;4.35;;;23.10;48.90;;;;;;5052793;28;20083;-64
2021/08/26 01:33:51;;;;;;;5.53;3.80;;;23.10;48.80;;;;;;5053073;28;20079;-63
2021/08/26 01:36:17;;;;;;;7.25;4.38;;;23.10;48.70;;;;;;5068335;28;20462;-63
2021/08/26 01:38:46;;;;;;;11.43;3.97;;;23.10;48.70;;;;;;5072218;28;20102;-63
2021/08/26 01:41:14;;;;;;;9.05;4.82;;;23.10;48.80;;;;;;5073301;28;20020;-62
2021/08/26 01:43:43;;;;;;;7.22;4.07;;;23.10;48.80;;;;;;5072207;28;20359;-63
2021/08/26 01:46:09;;;;;;;5.88;4.30;;;23.10;48.90;;;;;;5073235;28;20028;-63
2021/08/26 01:48:34;;;;;;;8.25;4.47;;;23.10;48.90;;;;;;5072431;28;20029;-63
2021/08/26 01:51:00;;;;;;;7.55;4.43;;;23.00;48.90;;;;;;5073163;28;20488;-63
2021/08/26 01:53:25;;;;;;;7.78;4.40;;;23.00;48.80;;;;;;5072534;28;20024;-66
2021/08/26 01:55:51;;;;;;;7.35;4.55;;;23.00;48.90;;;;;;5072802;28;20020;-64
2021/08/26 01:58:17;;;;;;;7.72;4.03;;;23.00;49.40;;;;;;5072979;28;20036;-62
2021/08/26 02:00:43;;;;;;;7.70;4.32;;;23.00;48.70;;;;;;5072107;28;20041;-62
2021/08/26 02:03:09;;;;;;;7.28;4.72;;;23.00;48.50;;;;;;5072946;28;20070;-62
2021/08/26 02:05:35;;;;;;;8.65;4.10;;;23.00;48.50;;;;;;5072159;28;20396;-63
2021/08/26 02:08:00;;;;;;;9.63;4.10;;;23.00;48.40;;;;;;5072728;28;20025;-62
2021/08/26 02:10:26;;;;;;;7.50;4.50;;;23.00;48.20;;;;;;5059741;28;20111;-65
2021/08/26 02:12:52;;;;;;;6.72;4.40;;;23.00;48.20;;;;;;5052343;28;20120;-64
2021/08/26 02:15:18;;;;;;;6.93;4.47;;;23.00;48.10;;;;;;5052992;28;20470;-64
2021/08/26 02:17:45;;;;;;;7.75;4.43;;;23.00;48.20;;;;;;5051934;28;20036;-64
2021/08/26 02:20:12;;;;;;;6.32;3.80;;;23.00;48.20;;;;;;5052487;28;20771;-64
2021/08/26 02:22:37;;;;;;;7.38;4.25;;;23.00;48.20;;;;;;5051636;28;20025;-64
2021/08/26 02:25:06;;;;;;;8.13;4.63;;;23.00;48.20;;;;;;5052677;28;20094;-62
2021/08/26 02:27:32;;;;;;;7.90;4.18;;;23.00;48.30;;;;;;5051586;28;20085;-64
2021/08/26 02:29:58;;;;;;;6.13;3.80;;;23.00;48.40;;;;;;5052249;28;20474;-64
2021/08/26 02:32:23;;;;;;;7.43;3.58;;;23.00;48.50;;;;;;5052472;28;20377;-64
2021/08/26 02:34:49;;;;;;;5.93;4.13;;;23.00;48.40;;;;;;5054568;28;20385;-63
2021/08/26 02:37:15;;;;;;;6.35;4.00;;;22.90;48.20;;;;;;5072416;28;20470;-63
2021/08/26 02:39:40;;;;;;;7.40;4.32;;;23.00;48.30;;;;;;5070370;28;20070;-65
2021/08/26 02:42:06;;;;;;;6.38;3.88;;;23.00;48.30;;;;;;5072246;28;20042;-64
2021/08/26 02:44:32;;;;;;;8.73;4.45;;;23.00;48.40;;;;;;5071613;28;20040;-63
2021/08/26 02:46:58;;;;;;;8.18;4.13;;;23.00;48.30;;;;;;5072237;28;20028;-64
2021/08/26 02:49:23;;;;;;;6.78;4.13;;;23.00;48.40;;;;;;5072232;28;20104;-63
2021/08/26 02:51:49;;;;;;;6.50;3.80;;;23.00;48.30;;;;;;5071361;28;20036;-63
2021/08/26 02:54:15;;;;;;;5.72;4.10;;;22.90;48.30;;;;;;5072145;28;20040;-62
2021/08/26 02:56:40;;;;;;;6.60;4.00;;;22.90;48.40;;;;;;5071305;28;20020;-63
2021/08/26 02:59:06;;;;;;;7.35;3.60;;;22.90;48.20;;;;;;5071910;28;20133;-63
2021/08/26 03:01:32;;;;;;;7.10;4.10;;;22.90;48.10;;;;;;5071308;28;20068;-63
2021/08/26 03:03:58;;;;;;;6.78;4.13;;;23.00;48.10;;;;;;5071687;28;20501;-62
2021/08/26 03:06:23;;;;;;;6.43;3.92;;;22.90;48.10;;;;;;5071809;28;20458;-63
2021/08/26 03:08:49;;;;;;;7.68;4.28;;;22.90;48.20;;;;;;5071239;28;20028;-62
2021/08/26 03:11:15;;;;;;;7.88;3.67;;;22.90;48.10;;;;;;5052212;28;20021;-63
2021/08/26 03:13:40;;;;;;;7.50;4.15;;;22.90;48.00;;;;;;5050990;28;20112;-63
2021/08/26 03:16:07;;;;;;;6.32;3.88;;;22.90;47.90;;;;;;5051872;28;20061;-63
2021/08/26 03:18:32;;;;;;;6.38;3.67;;;22.90;48.00;;;;;;5050726;28;20037;-63
2021/08/26 03:20:58;;;;;;;7.28;3.72;;;22.90;47.90;;;;;;5051844;28;20031;-62
2021/08/26 03:23:24;;;;;;;8.63;4.50;;;22.90;47.90;;;;;;5058746;28;20032;-63
2021/08/26 03:25:51;;;;;;;7.68;4.22;;;22.90;48.50;;;;;;5070843;28;20028;-63
2021/08/26 03:28:18;;;;;;;6.65;3.90;;;22.90;47.90;;;;;;5071778;28;20021;-63
2021/08/26 03:30:44;;;;;;;7.25;4.00;;;22.90;47.80;;;;;;5071108;28;20038;-63
2021/08/26 03:33:10;;;;;;;8.70;4.00;;;22.90;47.70;;;;;;5071499;28;20363;-63
2021/08/26 03:35:36;;;;;;;5.40;3.65;;;22.90;47.80;;;;;;5070443;28;20078;-63
2021/08/26 03:38:02;;;;;;;5.90;4.07;;;22.90;47.70;;;;;;5071426;28;20029;-62
2021/08/26 03:40:28;;;;;;;7.05;3.65;;;22.90;47.70;;;;;;5071509;28;20036;-65
2021/08/26 03:42:54;;;;;;;9.75;4.80;;;22.90;47.70;;;;;;5071247;28;20458;-63
2021/08/26 03:45:20;;;;;;;8.10;3.92;;;22.90;47.70;;;;;;5071299;28;20029;-63
2021/08/26 03:47:45;;;;;;;6.20;3.65;;;22.90;47.70;;;;;;5070781;28;20028;-63
2021/08/26 03:50:11;;;;;;;6.97;3.85;;;22.90;47.80;;;;;;5072697;28;20142;-63
2021/08/26 03:52:37;;;;;;;6.95;4.55;;;22.90;47.80;;;;;;5074496;28;20033;-63
2021/08/26 03:55:03;;;;;;;7.28;4.70;;;22.90;47.80;;;;;;5075382;28;20503;-63
2021/08/26 03:57:29;;;;;;;7.10;3.80;;;22.90;48.10;;;;;;5069330;28;20025;-65
2021/08/26 03:59:54;;;;;;;5.50;3.50;;;22.90;48.30;;;;;;5054456;28;20482;-63
2021/08/26 04:02:20;;;;;;;7.40;3.90;;;23.00;48.60;;;;;;5055067;28;20033;-63
2021/08/26 04:04:46;;;;;;;6.38;3.78;;;23.00;48.80;;;;;;5056239;28;20389;-63
2021/08/26 04:07:12;;;;;;;6.03;3.83;;;23.00;49.00;;;;;;5075359;28;20074;-62
2021/08/26 04:09:38;;;;;;;8.43;3.83;;;23.00;49.30;;;;;;5067770;28;20029;-63
2021/08/26 04:12:04;;;;;;;5.95;3.30;;;23.10;49.50;;;;;;5055010;28;20079;-63
2021/08/26 04:14:29;;;;;;;6.25;3.55;;;23.10;49.60;;;;;;5054684;28;20094;-66
2021/08/26 04:16:55;;;;;;;4.70;3.22;;;23.10;49.70;;;;;;5054602;28;20120;-63
2021/08/26 04:19:20;;;;;;;5.72;3.80;;;23.10;49.80;;;;;;5054733;28;20024;-60
2021/08/26 04:21:46;;;;;;;7.45;3.67;;;23.10;49.90;;;;;;5053999;28;20079;-61
2021/08/26 04:24:12;;;;;;;5.78;3.63;;;23.10;50.00;;;;;;5054693;28;20021;-63
2021/08/26 04:26:37;;;;;;;5.45;3.45;;;23.10;50.10;;;;;;5053992;28;20029;-62
2021/08/26 04:29:03;;;;;;;5.13;3.22;;;23.10;50.20;;;;;;5054326;28;20029;-62
2021/08/26 04:31:29;;;;;;;6.63;3.67;;;23.10;50.30;;;;;;5052988;28;20041;-65
2021/08/26 04:33:54;;;;;;;6.55;3.85;;;23.10;50.40;;;;;;5054182;28;20090;-63
2021/08/26 04:36:20;;;;;;;5.30;3.30;;;23.10;50.50;;;;;;5056559;28;20564;-63
2021/08/26 04:38:45;;;;;;;5.65;3.30;;;23.10;50.60;;;;;;5053414;28;20092;-63
2021/08/26 04:41:11;;;;;;;5.78;3.42;;;23.10;50.60;;;;;;5054189;28;20078;-63
2021/08/26 04:43:37;;;;;;;6.38;3.65;;;23.10;50.70;;;;;;5053092;28;20030;-63
2021/08/26 04:46:02;;;;;;;5.63;3.30;;;23.10;50.80;;;;;;5053047;28;20053;-62
2021/08/26 04:48:28;;;;;;;4.93;2.83;;;23.10;50.80;;;;;;5054632;28;20035;-63
2021/08/26 04:50:53;;;;;;;5.78;3.55;;;23.10;50.90;;;;;;5052224;28;20021;-65
2021/08/26 04:53:19;;;;;;;8.77;3.13;;;23.10;50.90;;;;;;5053137;28;20355;-64
2021/08/26 04:55:45;;;;;;;5.63;3.58;;;23.10;50.90;;;;;;5052161;28;20352;-65
2021/08/26 04:58:10;;;;;;;4.78;3.13;;;23.10;51.00;;;;;;5052869;28;20486;-63
2021/08/26 05:00:36;;;;;;;5.60;3.45;;;23.10;51.10;;;;;;5051392;28;20057;-62
2021/08/26 05:03:03;;;;;;;4.80;3.42;;;23.10;51.10;;;;;;5051526;28;20029;-64
2021/08/26 05:05:29;;;;;;;6.13;3.00;;;23.10;51.10;;;;;;5053517;28;20029;-65
2021/08/26 05:07:55;;;;;;;5.40;3.40;;;23.10;51.10;;;;;;5052134;28;20036;-64
2021/08/26 05:10:20;;;;;;;6.03;3.35;;;23.10;51.20;;;;;;5052301;28;20402;-63
2021/08/26 05:12:46;;;;;;;4.95;3.22;;;23.10;51.30;;;;;;5052678;28;20029;-64
2021/08/26 05:15:12;;;;;;;6.63;3.20;;;23.10;51.30;;;;;;5052798;28;20433;-64
2021/08/26 05:17:37;;;;;;;5.75;3.00;;;23.10;51.30;;;;;;5052002;28;20074;-64
2021/08/26 05:20:03;;;;;;;6.35;3.05;;;23.20;51.40;;;;;;5052519;28;20027;-65
2021/08/26 05:22:29;;;;;;;4.40;2.83;;;23.10;51.30;;;;;;5053122;28;20040;-64
2021/08/26 05:24:55;;;;;;;4.47;3.10;;;23.10;51.40;;;;;;5052534;28;20447;-63
2021/08/26 05:27:20;;;;;;;6.07;3.58;;;23.10;51.40;;;;;;5053432;28;20108;-63
2021/08/26 05:29:46;;;;;;;7.05;3.47;;;23.20;51.50;;;;;;5052647;28;20064;-63
2021/08/26 05:32:12;;;;;;;5.20;3.08;;;23.10;51.50;;;;;;5072296;28;20116;-62
2021/08/26 05:34:38;;;;;;;5.10;3.17;;;23.20;51.50;;;;;;5073108;28;20127;-63
2021/08/26 05:37:03;;;;;;;11.70;3.88;;;23.20;51.30;;;;;;5073892;28;20070;-63
2021/08/26 05:39:29;;;;;;;8.48;3.42;;;23.30;51.40;;;;;;5073528;28;20026;-62
2021/08/26 05:41:56;;;;;;;6.70;3.05;;;23.30;51.30;;;;;;5072256;28;20033;-62
2021/08/26 05:44:21;;;;;;;6.85;3.10;;;23.30;51.30;;;;;;5073422;28;20036;-59
2021/08/26 05:46:47;;;;;;;7.22;3.47;;;23.40;51.80;;;;;;5072428;28;20062;-62
2021/08/26 05:49:13;;;;;;;7.20;3.20;;;23.50;52.00;;;;;;5073491;28;20374;-62
2021/08/26 05:51:38;;;;;;;7.30;3.58;;;23.60;51.90;;;;;;5072583;28;20473;-61
2021/08/26 05:54:04;;;;;;;8.05;3.15;;;23.60;52.40;;;;;;5073369;28;20129;-60
2021/08/26 05:56:31;;;;;;;7.82;3.25;;;23.70;52.50;;;;;;5072902;28;20090;-61
2021/08/26 05:58:56;;;;;;;13.15;3.28;;;23.70;53.80;;;;;;5071959;28;20516;-62
2021/08/26 06:01:26;;;;;;;11.85;3.50;;;23.80;53.60;;;;;;5072097;28;20037;-62
2021/08/26 06:03:52;;;;;;;11.90;4.25;;;23.80;54.90;;;;;;5071548;28;20137;-61
2021/08/26 06:06:17;;;;;;;13.57;3.38;;;23.80;54.20;;;;;;5072904;28;20473;-62
2021/08/26 06:08:43;;;;;;;8.10;3.63;;;23.90;54.70;;;;;;5071994;28;20021;-63
2021/08/26 06:11:09;;;;;;;9.70;3.80;;;23.90;54.80;;;;;;5053075;28;20032;-63
2021/08/26 06:13:35;;;;;;;15.40;3.38;;;23.80;55.00;;;;;;5051516;28;20029;-64
2021/08/26 06:16:01;;;;;;;9.82;3.78;;;23.80;54.50;;;;;;5052343;28;20099;-63
2021/08/26 06:18:26;;;;;;;8.80;3.72;;;23.80;55.00;;;;;;5053095;28;20029;-63
2021/08/26 06:20:52;;;;;;;15.63;3.50;;;23.80;54.80;;;;;;5050609;28;20029;-63
2021/08/26 06:23:18;;;;;;;10.63;3.67;;;23.80;54.60;;;;;;5052262;28;20044;-63
2021/08/26 06:25:43;;;;;;;8.18;3.30;;;23.80;54.70;;;;;;5051720;28;20112;-63
2021/08/26 06:28:09;;;;;;;13.20;3.80;;;23.80;54.70;;;;;;5052075;28;20078;-63
2021/08/26 06:30:35;;;;;;;12.57;3.80;;;23.70;54.80;;;;;;5050556;28;20116;-65
2021/08/26 06:33:00;;;;;;;7.35;3.53;;;23.70;54.80;;;;;;5052263;28;20519;-63
2021/08/26 06:35:26;;;;;;;10.05;3.65;;;23.60;55.00;;;;;;5067089;28;20025;-63
2021/08/26 06:37:52;;;;;;;11.68;3.38;;;23.60;54.90;;;;;;5071329;28;20038;-63
2021/08/26 06:40:17;;;;;;;10.85;4.03;;;23.60;54.80;;;;;;5072502;28;20385;-63
2021/08/26 06:42:43;;;;;;;6.03;3.20;;;23.60;54.60;;;;;;5071521;28;20032;-63
2021/08/26 06:45:10;;;;;;;10.60;3.53;;;23.60;54.80;;;;;;5072376;28;20024;-63
2021/08/26 06:47:35;;;;;;;10.73;3.67;;;23.60;54.80;;;;;;5071589;28;20028;-64
2021/08/26 06:50:01;;;;;;;9.90;3.67;;;23.60;54.90;;;;;;5072250;28;20025;-63
2021/08/26 06:52:27;;;;;;;6.97;4.15;;;23.50;55.00;;;;;;5071916;28;20036;-63
2021/08/26 06:54:52;;;;;;;10.27;3.72;;;23.50;55.10;;;;;;5071400;28;20021;-63
2021/08/26 06:57:18;;;;;;;8.57;3.58;;;23.50;55.10;;;;;;5072017;28;20484;-63
2021/08/26 06:59:43;;;;;;;10.45;3.67;;;23.50;55.10;;;;;;5070983;28;20140;-64
2021/08/26 07:02:09;;;;;;;9.63;3.83;;;23.50;55.10;;;;;;5071352;28;20039;-63
2021/08/26 07:04:36;;;;;;;10.30;3.58;;;23.50;55.30;;;;;;5071211;28;20024;-64
2021/08/26 07:07:02;;;;;;;6.90;3.03;;;23.50;55.30;;;;;;5071705;28;20039;-63
2021/08/26 07:09:27;;;;;;;8.02;3.95;;;23.50;55.40;;;;;;5066907;28;20096;-64
2021/08/26 07:11:53;;;;;;;7.95;3.40;;;23.50;55.30;;;;;;5050822;28;20033;-63
2021/08/26 07:14:19;;;;;;;9.65;3.72;;;23.40;55.40;;;;;;5051385;28;20024;-63
2021/08/26 07:16:45;;;;;;;8.95;4.18;;;23.40;55.40;;;;;;5050938;28;20104;-63
2021/08/26 07:19:10;;;;;;;7.38;3.45;;;23.40;55.40;;;;;;5051700;28;20140;-63
2021/08/26 07:21:36;;;;;;;9.50;4.05;;;23.40;55.40;;;;;;5051551;28;20040;-64
2021/08/26 07:24:03;;;;;;;7.75;3.15;;;23.40;55.40;;;;;;5063233;28;20029;-63
2021/08/26 07:26:29;;;;;;;9.75;3.20;;;23.40;55.40;;;;;;5071278;28;20040;-63
2021/08/26 07:28:54;;;;;;;7.03;3.38;;;23.40;55.90;;;;;;5071003;28;20108;-63
2021/08/26 07:31:21;;;;;;;6.75;3.10;;;23.40;55.60;;;;;;5071529;28;20113;-63
2021/08/26 07:33:47;;;;;;;10.15;3.30;;;23.40;55.60;;;;;;5070949;28;20036;-63
2021/08/26 07:36:13;;;;;;;8.88;3.45;;;23.40;55.60;;;;;;5070506;28;20032;-63
2021/08/26 07:38:38;;;;;;;10.35;4.40;;;23.40;55.60;;;;;;5071098;28;20025;-64
2021/08/26 07:41:04;;;;;;;6.50;3.40;;;23.40;55.60;;;;;;5071455;28;20481;-63
2021/08/26 07:43:35;;;;;;;6.05;3.30;;;23.40;55.50;;;;;;5071404;28;20036;-63
2021/08/26 07:46:01;;;;;;;8.65;3.13;;;23.40;55.70;;;;;;5071219;28;20079;-64
2021/08/26 07:48:27;;;;;;;6.60;3.00;;;23.40;55.70;;;;;;5071497;28;20037;-63
2021/08/26 07:50:53;;;;;;;6.40;3.25;;;23.40;55.80;;;;;;5071202;28;20485;-63
2021/08/26 07:53:21;;;;;;;10.40;4.35;;;23.40;55.70;;;;;;5071554;28;20035;-63
2021/08/26 07:55:47;;;;;;;7.40;3.53;;;23.40;55.70;;;;;;5070273;28;20424;-63
2021/08/26 07:58:13;;;;;;;8.05;3.40;;;23.40;55.60;;;;;;5071415;28;20024;-63
2021/08/26 08:00:38;;;;;;;8.77;3.67;;;23.40;55.60;;;;;;5070882;28;20049;-64
2021/08/26 08:03:04;;;;;;;5.47;3.30;;;23.40;55.60;;;;;;5070948;28;20037;-63
2021/08/26 08:05:31;;;;;;;6.50;3.63;;;23.40;55.60;;;;;;5070758;28;20032;-64
2021/08/26 08:07:57;;;;;;;7.53;3.40;;;23.40;55.60;;;;;;5070310;28;20028;-64
2021/08/26 08:10:23;;;;;;;6.85;3.33;;;23.40;55.60;;;;;;5058955;28;20021;-63
2021/08/26 08:12:48;;;;;;;5.00;3.08;;;23.40;55.70;;;;;;5054384;28;20103;-64
2021/08/26 08:15:14;;;;;;;5.95;3.13;;;23.40;55.60;;;;;;5071387;28;20031;-63
2021/08/26 08:17:40;;;;;;;8.15;3.25;;;23.40;55.70;;;;;;5070302;28;20086;-65
2021/08/26 08:20:07;;;;;;;5.28;2.65;;;23.40;55.70;;;;;;5071010;28;20024;-64
2021/08/26 08:22:33;;;;;;;5.38;3.03;;;23.40;55.70;;;;;;5071195;28;20098;-63
2021/08/26 08:24:59;;;;;;;7.70;3.10;;;23.30;55.60;;;;;;5070539;28;20028;-64
2021/08/26 08:27:25;;;;;;;5.93;3.20;;;23.30;55.60;;;;;;5071248;28;20037;-63
2021/08/26 08:29:50;;;;;;;6.25;3.42;;;23.40;55.70;;;;;;5070384;28;20029;-64
2021/08/26 08:32:16;;;;;;;6.40;3.03;;;23.30;55.60;;;;;;5071033;28;20040;-64
2021/08/26 08:34:41;;;;;;;5.32;2.92;;;23.30;55.70;;;;;;5070115;28;20458;-64
2021/08/26 08:37:07;;;;;;;4.55;3.00;;;23.40;55.70;;;;;;5071558;28;20040;-63
2021/08/26 08:39:33;;;;;;;5.30;2.95;;;23.30;55.60;;;;;;5074565;28;20028;-63
2021/08/26 08:41:59;;;;;;;6.15;3.08;;;23.30;55.60;;;;;;5073762;28;20029;-64
2021/08/26 08:44:25;;;;;;;12.02;3.42;;;23.30;55.70;;;;;;5074456;28;20371;-63
2021/08/26 08:46:58;;;;;;;6.72;3.20;;;23.30;56.30;;;;;;5073473;28;20027;-64
2021/08/26 08:49:25;;;;;;;6.53;3.25;;;23.30;55.70;;;;;;5074435;28;20363;-64
2021/08/26 08:51:52;;;;;;;4.70;2.70;;;23.30;55.70;;;;;;5072224;28;20600;-64
2021/08/26 08:54:18;;;;;;;5.65;2.80;;;23.30;55.70;;;;;;5073363;28;20032;-64
2021/08/26 08:56:44;;;;;;;4.60;2.80;;;23.30;55.70;;;;;;5072940;28;20070;-64
2021/08/26 08:59:10;;;;;;;5.63;2.90;;;23.30;55.60;;;;;;5073794;28;20497;-64
2021/08/26 09:01:37;;;;;;;5.43;3.00;;;23.30;55.70;;;;;;5074229;28;20036;-64
2021/08/26 09:04:06;;;;;;;6.45;2.97;;;23.30;55.60;;;;;;5073285;28;20047;-64
2021/08/26 09:06:42;;;;;;;4.03;2.80;;;23.30;55.70;;;;;;5052161;28;20033;-64
2021/08/26 09:09:10;;;;;;;5.38;2.97;;;23.30;55.60;;;;;;5054095;28;20111;-63
2021/08/26 09:11:37;;;;;;;3.78;2.50;;;23.30;55.60;;;;;;5053491;28;20524;-64
2021/08/26 09:14:13;;;;;;;5.88;2.80;;;23.30;55.80;;;;;;5053179;28;20040;-63
2021/08/26 09:16:41;;;;;;;6.40;3.25;;;23.30;55.80;;;;;;5053827;28;20029;-64
2021/08/26 09:19:18;;;;;;;4.30;2.63;;;23.30;55.80;;;;;;5053440;28;20025;-64
2021/08/26 09:21:44;;;;;;;7.45;3.03;;;23.30;55.70;;;;;;5052984;28;20036;-64
2021/08/26 09:24:10;;;;;;;6.03;3.50;;;23.30;55.70;;;;;;5054038;28;20021;-64
2021/08/26 09:26:36;;;;;;;5.20;2.60;;;23.30;55.70;;;;;;5053941;28;20116;-64
2021/08/26 09:29:04;;;;;;;6.43;2.80;;;23.30;55.70;;;;;;5052338;28;20218;-64
2021/08/26 09:31:32;;;;;;;4.47;2.88;;;23.30;55.70;;;;;;5052756;28;20116;-64
2021/08/26 09:34:12;;;;;;;5.88;2.70;;;23.30;55.70;;;;;;5052423;28;20037;-64
2021/08/26 09:36:47;;;;;;;4.55;2.67;;;23.30;55.80;;;;;;5033781;28;20036;-63
2021/08/26 09:39:16;;;;;;;5.50;3.17;;;23.30;55.80;;;;;;5033600;28;20108;-64
2021/08/26 09:41:54;;;;;;;4.35;3.00;;;23.30;55.80;;;;;;5032944;28;20060;-64
2021/08/26 09:44:30;;;;;;;4.70;2.78;;;23.30;55.80;;;;;;5033870;28;20068;-64
2021/08/26 09:46:58;;;;;;;4.30;2.58;;;23.30;55.80;;;;;;5032641;28;20053;-64
2021/08/26 09:49:26;;;;;;;4.70;2.70;;;23.30;55.80;;;;;;5032892;28;20026;-64
2021/08/26 09:52:21;;;;;;;4.35;2.80;;;23.30;55.80;;;;;;5033035;28;20116;-64
2021/08/26 09:54:50;;;;;;;4.75;2.80;;;23.30;55.80;;;;;;5026981;28;20537;-64
2021/08/26 09:57:29;;;;;;;5.72;2.90;;;23.30;55.80;;;;;;5033389;28;20021;-64
2021/08/26 10:00:00;;;;;;;4.07;2.78;;;23.30;55.80;;;;;;5032401;28;20053;-63
2021/08/26 10:02:28;;;;;;;4.72;3.00;;;23.30;55.80;;;;;;5033372;28;20034;-64
2021/08/26 10:04:55;;;;;;;4.70;3.15;;;23.30;55.90;;;;;;5054728;28;20029;-64
2021/08/26 10:07:23;;;;;;;4.30;2.97;;;23.30;55.90;;;;;;5073206;28;20050;-64
2021/08/26 10:09:49;;;;;;;4.90;3.10;;;23.30;55.80;;;;;;5064556;28;20028;-64
2021/08/26 10:12:15;;;;;;;5.20;3.20;;;23.30;55.90;;;;;;5052844;28;20497;-64
2021/08/26 10:14:47;;;;;;;4.03;2.70;;;23.30;55.90;;;;;;5063930;28;20442;-64
2021/08/26 10:17:14;;;;;;;4.13;2.67;;;23.30;55.90;;;;;;5072946;28;20375;-63
2021/08/26 10:19:40;;;;;;;4.53;2.97;;;23.30;56.00;;;;;;5072494;28;20054;-64
2021/08/26 10:22:07;;;;;;;3.67;2.80;;;23.30;56.00;;;;;;5071854;28;20031;-64
2021/08/26 10:24:34;;;;;;;4.43;2.45;;;23.30;56.00;;;;;;5072376;28;20039;-64
2021/08/26 10:27:18;;;;;;;3.83;2.50;;;23.30;56.00;;;;;;5071893;28;20386;-64
2021/08/26 10:29:49;;;;;;;5.60;3.22;;;23.30;56.00;;;;;;5072573;28;20370;-64
2021/08/26 10:32:23;;;;;;;4.70;2.35;;;23.30;56.10;;;;;;5071338;28;20119;-64
2021/08/26 10:35:11;;;;;;;4.65;2.60;;;23.30;56.70;;;;;;5071110;28;20024;-63
2021/08/26 10:37:55;;;;;;;4.07;2.90;;;23.30;56.10;;;;;;5072511;28;20035;-64
2021/08/26 10:40:36;;;;;;;4.15;2.60;;;23.30;56.10;;;;;;5072387;28;20490;-64
2021/08/26 10:43:03;;;;;;;4.23;2.50;;;23.30;56.10;;;;;;5071529;28;20499;-64
2021/08/26 10:45:45;;;;;;;3.75;2.40;;;23.30;56.10;;;;;;5072261;28;20305;-64
2021/08/26 10:48:12;;;;;;;;;;;23.30;56.10;;;;;;5072308;28;20520;-64
2021/08/26 10:50:39;;;;;;;4.47;2.55;;;23.30;56.10;;;;;;5071873;28;19928;-63
2021/08/26 10:53:11;;;;;;;4.40;2.40;;;23.30;56.10;;;;;;5071490;28;20021;-63
2021/08/26 10:55:46;;;;;;;4.18;2.75;;;23.30;56.20;;;;;;5072302;28;20466;-63
2021/08/26 10:58:21;;;;;;;4.05;2.33;;;23.30;56.10;;;;;;5072246;28;20132;-63
2021/08/26 11:00:49;;;;;;;3.13;2.35;;;23.30;56.10;;;;;;5070063;28;20052;-63
2021/08/26 11:03:42;;;;;;;4.70;2.30;;;23.30;56.20;;;;;;5072007;28;20086;-63
2021/08/26 11:06:17;;;;;;;3.67;2.33;;;23.30;56.20;;;;;;5070874;28;20036;-63
2021/08/26 11:08:48;;;;;;;3.17;2.10;;;23.30;56.20;;;;;;5072174;28;20022;-63
2021/08/26 11:11:26;;;;;;;3.20;2.00;;;23.30;56.20;;;;;;5052379;28;20021;-63
2021/08/26 11:13:53;;;;;;;4.10;2.38;;;23.30;56.20;;;;;;5051337;28;20078;-63
2021/08/26 11:16:25;;;;;;;3.78;2.55;;;23.30;56.20;;;;;;5052124;28;20025;-63
2021/08/26 11:18:51;;;;;;;3.65;1.90;;;23.30;56.20;;;;;;5051078;28;20432;-63
2021/08/26 11:24:22;;;;;;;3.20;1.92;;;23.30;56.20;;;;;;5047901;28;20735;-63
2021/08/26 11:26:56;;;;;;;3.25;2.15;;;23.30;56.20;;;;;;5051342;28;20040;-63
2021/08/26 11:29:22;;;;;;;4.85;1.88;;;23.30;56.20;;;;;;5051599;28;20457;-63
2021/08/26 11:31:54;;;;;;;2.88;1.90;;;23.30;56.20;;;;;;5050611;28;20072;-63
2021/08/26 11:34:26;;;;;;;3.28;2.30;;;23.30;56.20;;;;;;5053791;28;20370;-63
2021/08/26 11:37:05;;;;;;;3.40;2.03;;;23.30;56.20;;;;;;5070977;28;20033;-63
2021/08/26 11:39:35;;;;;;;2.20;1.63;;;23.30;56.20;;;;;;5071865;28;20020;-63
2021/08/26 11:42:05;;;;;;;3.35;2.28;;;23.30;56.20;;;;;;5071411;28;20024;-63
2021/08/26 11:44:32;;;;;;;2.60;1.75;;;23.30;56.20;;;;;;5071455;28;20028;-63
2021/08/26 11:46:59;;;;;;;2.40;1.58;;;23.30;56.20;;;;;;5070729;28;20036;-64
2021/08/26 11:49:35;;;;;;;2.33;1.67;;;23.30;56.20;;;;;;5071389;28;20037;-63
2021/08/26 11:52:12;;;;;;;3.53;2.33;;;23.30;56.20;;;;;;5070983;28;20077;-64
2021/08/26 11:54:40;;;;;;;3.55;2.30;;;23.30;56.30;;;;;;5071343;28;20103;-62
2021/08/26 11:57:07;;;;;;;3.22;2.20;;;23.40;56.30;;;;;;5070844;28;20017;-61
2021/08/26 11:59:37;;;;;;;3.33;2.10;;;23.40;56.10;;;;;;5071572;28;20048;-62
2021/08/26 12:02:24;;;;;;;3.65;2.40;;;23.40;56.10;;;;;;5070758;28;20044;-61
2021/08/26 12:05:10;;;;;;;5.18;2.65;;;23.40;57.00;;;;;;5070762;28;20021;-60
2021/08/26 12:07:39;;;;;;;4.47;3.35;;;23.40;56.60;;;;;;5071346;28;20025;-59
2021/08/26 12:10:25;;;;;;;3.83;2.92;;;23.40;55.30;;;;;;5060732;28;20036;-60
2021/08/26 12:13:03;;;;;;;3.92;3.05;;;23.30;56.70;;;;;;5054183;28;20433;-61
2021/08/26 12:15:33;;;;;;;6.93;3.22;;;23.20;56.60;;;;;;5055095;28;20029;-60
2021/08/26 12:18:11;;;;;;;6.13;2.53;;;23.10;56.60;;;;;;5054774;28;20025;-60
2021/08/26 12:20:48;;;;;;;4.88;3.10;;;23.10;56.50;;;;;;5055101;28;20033;-61
2021/08/26 12:23:21;;;;;;;6.63;3.67;;;23.10;55.20;;;;;;5055364;28;20108;-59
2021/08/26 12:26:11;;;;;;;4.13;3.20;;;23.20;54.80;;;;;;5054876;28;20033;-59
2021/08/26 12:28:49;;;;;;;7.80;3.70;;;23.20;54.00;;;;;;5055500;28;20071;-60
2021/08/26 12:31:17;;;;;;;4.13;3.00;;;23.20;53.60;;;;;;5054713;28;20052;-59
2021/08/26 12:34:04;;;;;;;9.40;3.10;;;23.10;55.70;;;;;;5055092;28;20024;-59
2021/08/26 12:36:31;;;;;;;4.75;2.97;;;23.10;53.90;;;;;;5074158;28;20016;-60
2021/08/26 12:38:57;;;;;;;5.30;3.25;;;23.10;53.60;;;;;;5074298;28;20039;-62
2021/08/26 12:41:24;;;;;;;4.68;3.42;;;23.20;53.30;;;;;;5074899;28;20024;-59
2021/08/26 12:43:54;;;;;;;5.32;3.63;;;23.20;54.30;;;;;;5074248;28;20047;-69
2021/08/26 12:46:31;;;;;;;4.72;3.08;;;23.10;53.80;;;;;;5074711;28;20103;-61
2021/08/26 12:49:08;;;;;;;5.13;2.92;;;23.20;53.00;;;;;;5074342;28;20074;-60
2021/08/26 12:51:34;;;;;;;5.53;3.28;;;23.10;53.90;;;;;;5074579;28;20017;-62
2021/08/26 12:54:06;;;;;;;9.13;3.40;;;23.10;54.00;;;;;;5073848;28;20016;-63
2021/08/26 12:56:49;;;;;;;;;;;23.00;53.90;;;;;;5075173;28;20373;-62
2021/08/26 12:59:16;;;;;;;8.38;3.42;;;23.00;54.10;;;;;;5067866;28;19917;-60